Meteo Giornale » Osservazioni meteo Arabia Saudita » Guriat
ore: 08:00 - Osservazioni Meteo Guriat
Lat. 31° 24' N Lon. 37° 16' E Alt. 509 metri s.l.m.
25 °C
Sereno
Temp. 24 Ore
22 °C
37 °C
Nord-Ovest
18.5 Km/h
Dew point 17 °C
Umidità 61 %
Visibilità 10 Km
Il sole sorge alle ore 06:07
Il sole tramonta alle ore 18:53
| Data e Ora | Cielo e Fenomeni | T °C | DP °C | Um. % | Pres. hPa | Vis. km | Vento km/h | |
|---|---|---|---|---|---|---|---|---|
| Oggi h: 08:00 | Sereno | 25 | 17 | 61 | 1011 | 10 | NO 18.5 | |
| Oggi h: 07:00 | Sereno | 22 | 17 | 73 | 1011 | 10 | O/NO 14.8 | |
| Oggi h: 06:00 | Sereno | 22 | 17 | 73 | 1011 | 10 | O/NO 11.1 | |
| Oggi h: 05:00 | Sereno | 23 | 17 | 68 | 1010 | 10 | NO 14.8 | |
| Oggi h: 04:00 | Sereno | 24 | 17 | 64 | 1010 | 10 | O/NO 11.1 | |
| Oggi h: 03:00 | Sereno | 24 | 17 | 64 | 1010 | 10 | NO 14.8 | |
| Oggi h: 02:00 | Sereno | 25 | 16 | 57 | 1010 | 10 | O/NO 11.1 | |
| Oggi h: 01:00 | Sereno | 26 | 12 | 41 | 1010 | 10 | O/NO 11.1 | |
| Oggi h: 00:00 | Sereno | 28 | 8 | 28 | 1010 | 10 | O/NO 22.2 | |
| Ieri h: 23:00 | Sereno | 29 | 8 | 26 | 1010 | 10 | NO 22.2 | |
| Ieri h: 22:00 | Sereno | 30 | 8 | 25 | 1010 | 10 | NO 20.3 | |
| Ieri h: 21:00 | Sereno | 31 | 7 | 22 | 1010 | 10 | N 9.3 | |
| Ieri h: 20:00 | Poco Nuvoloso | 33 | 8 | 21 | 1009 | 10 | N 9.3 | |
| Ieri h: 19:00 | Poco Nuvoloso | 35 | 7 | 17 | 1009 | 10 | NE 11.1 | |
| Ieri h: 18:00 | Poco Nuvoloso | 36 | 8 | 18 | 1009 | 10 | E/SE 7.4 | |
| Ieri h: 17:00 | Sereno | 36 | 8 | 18 | 1009 | 10 | N/NE 7.4 | |
| Ieri h: 16:00 | Sereno | 37 | 8 | 17 | 1009 | 10 | N 0 | |
| Ieri h: 15:00 | Sereno | 36 | 8 | 18 | 1010 | 10 | N 0 | |
| Ieri h: 14:00 | Sereno | 35 | 9 | 20 | 1010 | 10 | S/SE 7.4 | |
| Ieri h: 13:00 | Sereno | 35 | 11 | 23 | 1011 | 10 | N 0 | |
| Ieri h: 12:00 | Sereno | 33 | 13 | 29 | 1011 | 10 | N 0 | |
| Ieri h: 11:00 | Sereno | 31 | 14 | 35 | 1012 | 10 | N 0 | |
| Ieri h: 10:00 | Sereno | 29 | 16 | 45 | 1012 | 10 | O/NO 7.4 | |



